Time;durP1;ratioP1;P1;durP2;ratioP2;P2;SDS_P1;SDS_P2;PMS_P1;PMS_P2;Temp;Humidity;BMP_temperature;BMP_pressure;BME280_temperature;BME280_humidity;BME280_pressure;Samples;Min_cycle;Max_cycle;Signal;HPM_P1;HPM_P2
2022/06/10 00:00:58;;;;;;;4.25;2.10;;;;;;;;;;10423676;28;20210;-68
2022/06/10 00:06:00;;;;;;;3.47;1.88;;;;;;;;;;10460191;28;20281;-68
2022/06/10 00:11:02;;;;;;;5.35;2.22;;;;;;;;;;10458525;28;20652;-67
2022/06/10 00:16:03;;;;;;;5.03;1.55;;;;;;;;;;10430377;28;20182;-67
2022/06/10 00:21:06;;;;;;;1.73;1.50;;;;;;;;;;10455090;28;20195;-67
2022/06/10 00:26:08;;;;;;;1.40;1.30;;;;;;;;;;10464556;28;20218;-67
2022/06/10 00:31:09;;;;;;;2.45;1.77;;;;;;;;;;10460631;28;20724;-67
2022/06/10 00:36:11;;;;;;;2.13;1.90;;;;;;;;;;10437152;28;20764;-67
2022/06/10 00:41:12;;;;;;;5.35;2.00;;;;;;;;;;10460866;28;20187;-67
2022/06/10 00:46:27;;;;;;;2.65;2.45;;;;;;;;;;10456452;28;20237;-67
2022/06/10 00:51:39;;;;;;;3.75;2.10;;;;;;;;;;10452821;28;20668;-67
2022/06/10 00:56:41;;;;;;;3.70;1.95;;;;;;;;;;10429442;28;20260;-67
2022/06/10 01:01:43;;;;;;;2.70;2.50;;;;;;;;;;10456945;28;20248;-67
2022/06/10 01:06:44;;;;;;;2.70;2.30;;;;;;;;;;10447559;28;20207;-67
2022/06/10 01:11:56;;;;;;;2.47;2.30;;;;;;;;;;10455163;28;20233;-67
2022/06/10 01:17:05;;;;;;;2.70;2.35;;;;;;;;;;10405509;28;20202;-67
2022/06/10 01:22:08;;;;;;;2.40;2.30;;;;;;;;;;10459089;28;20185;-67
2022/06/10 01:32:50;;;;;;;5.90;2.80;;;;;;;;;;10456819;28;20330;-67
2022/06/10 01:37:59;;;;;;;2.42;2.30;;;;;;;;;;10449859;28;20297;-67
2022/06/10 01:43:09;;;;;;;2.70;2.45;;;;;;;;;;10456250;28;20187;-67
2022/06/10 01:48:16;;;;;;;3.03;2.92;;;;;;;;;;10379915;28;20232;-66
2022/06/10 01:53:28;;;;;;;2.67;2.47;;;;;;;;;;10381202;28;20184;-67
2022/06/10 01:58:44;;;;;;;2.70;2.53;;;;;;;;;;10375978;28;20191;-67
2022/06/10 02:03:55;;;;;;;5.97;3.08;;;;;;;;;;10368556;28;20247;-67
2022/06/10 02:09:01;;;;;;;4.43;2.97;;;;;;;;;;10374734;28;20214;-67
2022/06/10 02:14:07;;;;;;;3.30;3.10;;;;;;;;;;10369147;28;20180;-67
2022/06/10 02:19:28;;;;;;;3.35;3.15;;;;;;;;;;10375436;28;20192;-67
2022/06/10 02:24:35;;;;;;;3.60;3.42;;;;;;;;;;10366606;28;20548;-67
2022/06/10 02:29:39;;;;;;;3.97;3.30;;;;;;;;;;10368076;28;20745;-67
2022/06/10 02:34:40;;;;;;;3.58;3.38;;;;;;;;;;10371842;28;20239;-67
2022/06/10 02:39:45;;;;;;;3.75;3.47;;;;;;;;;;10342610;28;20746;-67
2022/06/10 02:44:52;;;;;;;3.78;3.30;;;;;;;;;;10371236;28;20771;-67
2022/06/10 02:49:53;;;;;;;3.90;3.60;;;;;;;;;;10439704;28;20209;-67
2022/06/10 02:54:54;;;;;;;4.00;3.78;;;;;;;;;;10455402;28;20786;-68
2022/06/10 03:05:38;;;;;;;4.00;3.90;;;;;;;;;;10456567;28;20664;-67
2022/06/10 03:10:53;;;;;;;4.25;4.05;;;;;;;;;;10458675;28;20220;-67
2022/06/10 03:16:13;;;;;;;4.72;3.88;;;;;;;;;;10445983;28;20752;-66
2022/06/10 03:21:16;;;;;;;4.75;4.05;;;;;;;;;;10429551;28;20186;-67
2022/06/10 03:26:25;;;;;;;4.88;4.32;;;;;;;;;;10447813;28;20209;-67
2022/06/10 03:31:34;;;;;;;4.25;3.88;;;;;;;;;;10466777;28;20206;-67
2022/06/10 03:36:36;;;;;;;4.32;3.92;;;;;;;;;;10465180;28;20723;-67
2022/06/10 03:41:41;;;;;;;4.22;3.28;;;;;;;;;;10461690;28;20197;-67
2022/06/10 03:46:45;;;;;;;4.05;3.63;;;;;;;;;;10446357;28;20370;-68
2022/06/10 03:51:47;;;;;;;4.55;4.25;;;;;;;;;;10464224;28;20183;-68
2022/06/10 03:56:51;;;;;;;4.90;4.60;;;;;;;;;;10469442;28;20807;-67
2022/06/10 04:01:52;;;;;;;6.35;5.47;;;;;;;;;;10444822;28;20309;-68
2022/06/10 04:06:53;;;;;;;6.20;5.80;;;;;;;;;;10461495;28;20202;-68
2022/06/10 04:11:54;;;;;;;6.20;5.38;;;;;;;;;;10463036;28;20213;-68
2022/06/10 04:16:55;;;;;;;5.80;5.32;;;;;;;;;;10456068;28;20277;-67
2022/06/10 04:21:56;;;;;;;5.70;5.28;;;;;;;;;;10463400;28;20186;-68
2022/06/10 04:26:57;;;;;;;5.90;5.40;;;;;;;;;;10442742;28;20218;-68
2022/06/10 04:31:58;;;;;;;6.32;5.90;;;;;;;;;;10464229;28;20294;-68
2022/06/10 04:36:59;;;;;;;6.45;6.00;;;;;;;;;;10465347;28;20203;-67
2022/06/10 04:42:00;;;;;;;5.35;5.07;;;;;;;;;;10452020;28;20186;-68
2022/06/10 04:47:02;;;;;;;5.40;5.03;;;;;;;;;;10441115;28;20249;-68
2022/06/10 04:52:04;;;;;;;6.18;5.50;;;;;;;;;;10443985;28;20859;-64
2022/06/10 04:57:05;;;;;;;8.70;5.03;;;;;;;;;;10432137;28;20234;-64
2022/06/10 05:02:06;;;;;;;6.32;5.10;;;;;;;;;;10427945;28;20616;-64
2022/06/10 05:07:07;;;;;;;13.40;5.68;;;;;;;;;;10434465;28;20202;-64
2022/06/10 05:12:09;;;;;;;5.65;5.10;;;;;;;;;;10394532;28;20638;-63
2022/06/10 05:17:10;;;;;;;10.85;5.72;;;;;;;;;;10441266;28;20179;-63
2022/06/10 05:22:11;;;;;;;6.57;4.55;;;;;;;;;;10433299;28;20239;-62
2022/06/10 05:27:12;;;;;;;8.10;4.57;;;;;;;;;;10438489;28;22036;-63
2022/06/10 05:32:13;;;;;;;5.53;5.13;;;;;;;;;;10431547;28;20210;-62
2022/06/10 05:37:14;;;;;;;6.18;4.70;;;;;;;;;;10440528;28;20264;-62
2022/06/10 05:42:15;;;;;;;6.80;5.38;;;;;;;;;;10448817;28;20499;-62
2022/06/10 05:47:19;;;;;;;5.65;5.03;;;;;;;;;;10445069;28;20258;-63
2022/06/10 05:52:22;;;;;;;5.25;4.75;;;;;;;;;;10439275;28;20267;-63
2022/06/10 05:57:23;;;;;;;11.73;5.30;;;;;;;;;;10409910;28;20202;-67
2022/06/10 06:02:24;;;;;;;8.80;5.40;;;;;;;;;;10440078;28;20210;-68
2022/06/10 06:07:27;;;;;;;9.77;5.18;;;;;;;;;;10434131;28;20214;-68
2022/06/10 06:12:28;;;;;;;9.27;5.32;;;;;;;;;;10428158;28;20753;-68
2022/06/10 06:17:29;;;;;;;5.47;5.00;;;;;;;;;;10403710;28;20188;-69
2022/06/10 06:22:30;;;;;;;4.65;4.13;;;;;;;;;;10429425;28;20178;-68
2022/06/10 06:27:31;;;;;;;7.70;4.70;;;;;;;;;;10455997;28;20697;-68
2022/06/10 06:32:32;;;;;;;7.15;4.80;;;;;;;;;;10461778;28;20220;-68
2022/06/10 06:37:33;;;;;;;4.75;4.28;;;;;;;;;;10467041;28;20189;-68
2022/06/10 06:42:35;;;;;;;6.68;4.25;;;;;;;;;;10467355;28;20849;-68
2022/06/10 06:47:36;;;;;;;4.38;3.83;;;;;;;;;;10451678;28;20278;-68
2022/06/10 06:52:38;;;;;;;4.00;3.70;;;;;;;;;;10473786;28;20189;-68
2022/06/10 06:57:39;;;;;;;4.00;3.70;;;;;;;;;;10432584;28;20289;-68
2022/06/10 07:02:40;;;;;;;6.47;3.20;;;;;;;;;;10450955;28;20211;-68
2022/06/10 07:07:41;;;;;;;3.72;3.45;;;;;;;;;;10444888;28;20720;-67
2022/06/10 07:12:42;;;;;;;5.95;2.90;;;;;;;;;;10440106;28;20182;-68
2022/06/10 07:17:43;;;;;;;6.93;3.25;;;;;;;;;;10451113;28;20559;-68
2022/06/10 07:22:44;;;;;;;3.30;2.35;;;;;;;;;;10471546;28;20186;-68
2022/06/10 07:27:45;;;;;;;5.72;2.40;;;;;;;;;;10430020;28;20206;-68
2022/06/10 07:32:47;;;;;;;6.88;2.83;;;;;;;;;;10472727;28;20214;-68
2022/06/10 07:37:48;;;;;;;4.32;1.90;;;;;;;;;;10474041;28;20185;-68
2022/06/10 07:42:51;;;;;;;6.35;2.35;;;;;;;;;;10453370;28;20186;-68
2022/06/10 07:47:52;;;;;;;2.17;1.70;;;;;;;;;;10446197;28;20457;-68
2022/06/10 07:52:53;;;;;;;2.83;2.03;;;;;;;;;;10438967;28;20183;-68
2022/06/10 07:57:54;;;;;;;3.75;1.80;;;;;;;;;;10449131;28;20206;-68
2022/06/10 08:02:57;;;;;;;2.95;1.40;;;;;;;;;;10470772;28;20241;-66
2022/06/10 08:08:01;;;;;;;1.85;1.50;;;;;;;;;;10449930;28;20281;-68
2022/06/10 08:13:04;;;;;;;3.95;1.10;;;;;;;;;;10452083;28;20653;-68
2022/06/10 08:18:06;;;;;;;6.35;1.63;;;;;;;;;;10470441;28;20187;-67
2022/06/10 08:23:07;;;;;;;2.17;1.10;;;;;;;;;;10446950;28;20201;-67
2022/06/10 08:28:09;;;;;;;5.57;0.85;;;;;;;;;;10455941;28;20201;-67
2022/06/10 08:33:10;;;;;;;3.58;1.10;;;;;;;;;;10444031;28;20332;-67
2022/06/10 08:38:13;;;;;;;1.50;0.82;;;;;;;;;;10468508;28;20178;-67
2022/06/10 08:43:28;;;;;;;2.00;0.90;;;;;;;;;;10450408;28;20187;-67
2022/06/10 08:48:29;;;;;;;8.43;1.20;;;;;;;;;;10431222;28;20272;-67
2022/06/10 08:53:44;;;;;;;1.55;0.80;;;;;;;;;;10439448;28;20252;-67
2022/06/10 08:58:53;;;;;;;3.10;1.00;;;;;;;;;;10437233;28;20226;-67
2022/06/10 09:03:54;;;;;;;3.63;1.00;;;;;;;;;;10428670;28;20218;-67
2022/06/10 09:08:56;;;;;;;2.40;0.85;;;;;;;;;;10464442;28;20326;-68
2022/06/10 09:14:02;;;;;;;4.20;1.02;;;;;;;;;;10462291;28;20182;-67
2022/06/10 09:19:06;;;;;;;2.10;0.63;;;;;;;;;;10470911;28;20190;-67
2022/06/10 09:24:19;;;;;;;2.90;0.80;;;;;;;;;;10448607;28;20178;-67
2022/06/10 09:29:20;;;;;;;1.92;0.70;;;;;;;;;;10470205;28;20206;-67
2022/06/10 09:34:40;;;;;;;3.08;0.70;;;;;;;;;;10464328;28;20242;-68
2022/06/10 09:45:28;;;;;;;4.38;0.95;;;;;;;;;;10467633;28;20359;-67
2022/06/10 09:50:32;;;;;;;1.20;1.10;;;;;;;;;;10466524;28;20210;-67
2022/06/10 09:55:40;;;;;;;1.42;0.60;;;;;;;;;;10463012;28;20179;-67
2022/06/10 10:00:59;;;;;;;4.55;0.80;;;;;;;;;;10465302;28;20218;-67
2022/06/10 10:06:19;;;;;;;3.47;0.88;;;;;;;;;;10466073;28;20711;-67
2022/06/10 10:11:37;;;;;;;3.22;0.90;;;;;;;;;;10468270;28;20182;-67
2022/06/10 10:16:47;;;;;;;2.70;1.00;;;;;;;;;;10466133;28;20185;-68
2022/06/10 10:22:07;;;;;;;6.28;0.77;;;;;;;;;;10471953;28;20186;-67
2022/06/10 10:27:19;;;;;;;1.05;0.55;;;;;;;;;;10475049;28;20209;-67
2022/06/10 10:32:23;;;;;;;4.35;1.23;;;;;;;;;;10474167;28;20242;-67
2022/06/10 10:37:31;;;;;;;2.70;1.10;;;;;;;;;;10469390;28;20209;-68
2022/06/10 10:42:37;;;;;;;3.10;1.20;;;;;;;;;;10472781;28;21108;-67
2022/06/10 10:47:38;;;;;;;3.55;0.80;;;;;;;;;;10454865;28;20222;-67
2022/06/10 10:52:41;;;;;;;2.33;0.90;;;;;;;;;;10452553;28;20625;-68
2022/06/10 10:58:01;;;;;;;2.03;0.93;;;;;;;;;;10464652;28;20666;-67
2022/06/10 11:03:03;;;;;;;4.75;0.82;;;;;;;;;;10468102;28;20237;-67
2022/06/10 11:08:13;;;;;;;4.68;0.80;;;;;;;;;;10474367;28;20230;-67
2022/06/10 11:13:17;;;;;;;2.85;0.93;;;;;;;;;;10459998;28;20207;-67
2022/06/10 11:18:19;;;;;;;2.33;0.60;;;;;;;;;;10443823;28;20191;-67
2022/06/10 11:23:25;;;;;;;2.55;0.60;;;;;;;;;;10451367;28;20310;-68
2022/06/10 11:28:26;;;;;;;1.30;1.05;;;;;;;;;;10437190;28;20657;-67
2022/06/10 11:33:32;;;;;;;1.75;0.95;;;;;;;;;;10468658;28;20206;-67
2022/06/10 11:38:34;;;;;;;8.18;0.98;;;;;;;;;;10468321;28;20187;-68
2022/06/10 11:43:37;;;;;;;1.33;0.70;;;;;;;;;;10454871;28;20561;-67
2022/06/10 11:48:38;;;;;;;3.33;0.80;;;;;;;;;;10448329;28;20233;-67
2022/06/10 11:53:42;;;;;;;1.73;0.70;;;;;;;;;;10448952;28;20197;-67
2022/06/10 12:04:18;;;;;;;3.97;0.60;;;;;;;;;;10445667;28;20203;-67
2022/06/10 12:09:27;;;;;;;2.38;0.70;;;;;;;;;;10459175;28;20559;-67
2022/06/10 12:14:43;;;;;;;2.63;0.85;;;;;;;;;;10460487;28;20178;-66
2022/06/10 12:19:49;;;;;;;4.57;0.90;;;;;;;;;;10470099;28;20180;-67
2022/06/10 12:24:51;;;;;;;2.20;0.60;;;;;;;;;;10450299;28;20660;-67
2022/06/10 12:30:02;;;;;;;3.00;0.80;;;;;;;;;;10436581;28;20223;-66
2022/06/10 12:35:23;;;;;;;5.32;0.95;;;;;;;;;;10437385;28;20223;-66
2022/06/10 12:40:27;;;;;;;2.30;0.70;;;;;;;;;;10455697;28;20676;-67
2022/06/10 12:45:32;;;;;;;2.97;0.80;;;;;;;;;;10468974;28;20223;-67
2022/06/10 12:50:36;;;;;;;1.77;0.80;;;;;;;;;;10452601;28;20297;-67
2022/06/10 12:55:51;;;;;;;1.35;1.08;;;;;;;;;;10468133;28;20195;-67
2022/06/10 13:00:52;;;;;;;3.15;0.80;;;;;;;;;;10414999;28;20218;-67
2022/06/10 13:05:53;;;;;;;4.63;1.00;;;;;;;;;;10436346;28;20702;-67
2022/06/10 13:10:56;;;;;;;2.67;0.60;;;;;;;;;;10456074;28;20214;-68
2022/06/10 13:16:18;;;;;;;4.25;0.98;;;;;;;;;;10441791;28;20194;-68
2022/06/10 13:21:26;;;;;;;3.47;0.60;;;;;;;;;;10453179;28;20731;-68
2022/06/10 13:26:29;;;;;;;2.97;0.75;;;;;;;;;;10471130;28;20597;-67
2022/06/10 13:31:30;;;;;;;1.95;0.60;;;;;;;;;;10426583;28;20260;-67
2022/06/10 13:36:34;;;;;;;2.63;1.00;;;;;;;;;;10446444;28;20586;-67
2022/06/10 13:41:48;;;;;;;1.00;0.70;;;;;;;;;;10464194;28;20183;-68
2022/06/10 13:46:50;;;;;;;0.88;0.63;;;;;;;;;;10449757;28;20225;-66
2022/06/10 13:51:52;;;;;;;2.42;0.70;;;;;;;;;;10430312;28;20202;-67
2022/06/10 13:56:53;;;;;;;1.02;0.68;;;;;;;;;;10442944;28;20210;-68
2022/06/10 14:01:54;;;;;;;3.88;0.70;;;;;;;;;;10465970;28;20576;-68
2022/06/10 14:07:03;;;;;;;3.08;0.82;;;;;;;;;;10459557;28;20685;-68
2022/06/10 14:12:14;;;;;;;1.95;1.13;;;;;;;;;;10469112;28;20206;-67
2022/06/10 14:17:18;;;;;;;4.47;0.85;;;;;;;;;;10461264;28;20182;-68
2022/06/10 14:22:26;;;;;;;2.45;0.65;;;;;;;;;;10466007;28;20201;-68
2022/06/10 14:27:28;;;;;;;1.45;0.80;;;;;;;;;;10464600;28;20212;-68
2022/06/10 14:32:32;;;;;;;4.18;0.80;;;;;;;;;;10444255;28;20547;-68
2022/06/10 14:37:34;;;;;;;1.67;0.60;;;;;;;;;;10442275;28;20186;-68
2022/06/10 14:42:36;;;;;;;0.73;0.57;;;;;;;;;;10442444;28;20179;-68
2022/06/10 14:47:57;;;;;;;0.60;0.50;;;;;;;;;;10444535;28;20238;-67
2022/06/10 14:52:59;;;;;;;1.27;0.60;;;;;;;;;;10445061;28;20459;-68
2022/06/10 14:58:02;;;;;;;4.05;0.80;;;;;;;;;;10421103;28;20210;-66
2022/06/10 15:03:10;;;;;;;4.85;0.70;;;;;;;;;;10423610;28;21181;-71
2022/06/10 15:08:13;;;;;;;1.63;0.70;;;;;;;;;;10432541;28;20218;-72
2022/06/10 15:13:26;;;;;;;1.48;0.55;;;;;;;;;;10436895;28;20179;-71
2022/06/10 15:18:29;;;;;;;0.70;0.55;;;;;;;;;;10434589;28;20193;-67
2022/06/10 15:23:31;;;;;;;1.88;0.50;;;;;;;;;;10411917;28;20190;-65
2022/06/10 15:28:33;;;;;;;2.42;0.73;;;;;;;;;;10439243;28;20304;-65
2022/06/10 15:33:34;;;;;;;0.75;0.50;;;;;;;;;;10446068;28;20206;-64
2022/06/10 15:44:00;;;;;;;3.10;0.70;;;;;;;;;;10435168;28;20198;-66
2022/06/10 15:49:01;;;;;;;1.70;0.73;;;;;;;;;;10411662;28;20230;-65
2022/06/10 15:54:05;;;;;;;2.95;0.50;;;;;;;;;;10439225;28;20202;-65
2022/06/10 15:59:06;;;;;;;1.77;0.63;;;;;;;;;;10441490;28;20202;-66
2022/06/10 16:04:08;;;;;;;1.27;0.70;;;;;;;;;;10442543;28;20975;-65
2022/06/10 16:09:09;;;;;;;1.75;0.60;;;;;;;;;;10434667;28;20244;-66
2022/06/10 16:14:10;;;;;;;6.15;0.80;;;;;;;;;;10410920;28;20182;-66
2022/06/10 16:19:11;;;;;;;3.28;0.70;;;;;;;;;;10441019;28;20183;-67
2022/06/10 16:24:13;;;;;;;4.03;0.63;;;;;;;;;;10415172;28;20177;-66
2022/06/10 16:29:16;;;;;;;6.47;0.77;;;;;;;;;;10419557;28;20215;-66
2022/06/10 16:34:18;;;;;;;1.05;0.85;;;;;;;;;;10409773;28;20739;-67
2022/06/10 16:39:19;;;;;;;2.25;0.80;;;;;;;;;;10441948;28;20228;-67
2022/06/10 16:44:23;;;;;;;0.70;0.70;;;;;;;;;;10405951;28;20203;-67
2022/06/10 16:49:28;;;;;;;1.80;0.98;;;;;;;;;;10435901;28;20246;-67
2022/06/10 16:54:29;;;;;;;1.85;1.30;;;;;;;;;;10430141;28;20182;-67
2022/06/10 16:59:35;;;;;;;2.35;0.80;;;;;;;;;;10428095;28;20634;-67
2022/06/10 17:04:36;;;;;;;2.58;0.85;;;;;;;;;;10431472;28;20215;-67
2022/06/10 17:09:37;;;;;;;1.92;1.05;;;;;;;;;;10428981;28;20276;-67
2022/06/10 17:14:38;;;;;;;1.15;0.93;;;;;;;;;;10439044;28;20183;-67
2022/06/10 17:19:39;;;;;;;2.95;1.20;;;;;;;;;;10432073;28;20191;-67
2022/06/10 17:24:40;;;;;;;3.78;1.08;;;;;;;;;;10433771;28;20280;-67
2022/06/10 17:29:42;;;;;;;4.90;1.02;;;;;;;;;;10464313;28;21246;-67
2022/06/10 17:34:44;;;;;;;1.98;1.30;;;;;;;;;;10487174;28;20263;-66
2022/06/10 17:39:45;;;;;;;2.10;1.30;;;;;;;;;;10485448;28;20185;-66
2022/06/10 17:44:46;;;;;;;2.10;1.23;;;;;;;;;;10453169;28;20178;-65
2022/06/10 17:49:52;;;;;;;3.03;1.23;;;;;;;;;;10482240;28;20228;-69
2022/06/10 17:54:56;;;;;;;2.50;2.30;;;;;;;;;;10482514;28;20221;-68
2022/06/10 17:59:59;;;;;;;1.38;1.20;;;;;;;;;;10456039;28;20212;-66
2022/06/10 18:05:00;;;;;;;2.28;1.05;;;;;;;;;;10454996;28;20601;-67
2022/06/10 18:10:01;;;;;;;2.95;1.30;;;;;;;;;;10488733;28;20262;-66
2022/06/10 18:15:05;;;;;;;2.60;1.10;;;;;;;;;;10480295;28;20196;-67
2022/06/10 18:20:13;;;;;;;2.83;1.30;;;;;;;;;;10486978;28;20186;-67
2022/06/10 18:25:15;;;;;;;1.63;1.08;;;;;;;;;;10487289;28;20186;-66
2022/06/10 18:30:19;;;;;;;1.45;1.35;;;;;;;;;;10488505;28;20209;-66
2022/06/10 18:35:23;;;;;;;1.63;1.10;;;;;;;;;;10478714;28;20197;-65
2022/06/10 18:40:29;;;;;;;1.50;1.40;;;;;;;;;;10462406;28;20185;-67
2022/06/10 18:45:31;;;;;;;4.15;1.05;;;;;;;;;;10499912;28;20274;-67
2022/06/10 18:50:34;;;;;;;6.07;1.35;;;;;;;;;;10500338;28;20213;-68
2022/06/10 18:55:35;;;;;;;4.28;1.00;;;;;;;;;;10493172;28;20182;-67
2022/06/10 19:00:38;;;;;;;2.15;0.90;;;;;;;;;;10491890;28;20214;-67
2022/06/10 19:05:39;;;;;;;6.72;1.58;;;;;;;;;;10491493;28;20206;-65
2022/06/10 19:10:42;;;;;;;3.67;1.40;;;;;;;;;;10479769;28;20323;-67
2022/06/10 19:15:49;;;;;;;8.88;1.50;;;;;;;;;;10466331;28;20182;-68
2022/06/10 19:20:51;;;;;;;12.60;1.52;;;;;;;;;;10500295;28;20185;-68
2022/06/10 19:25:54;;;;;;;3.67;1.40;;;;;;;;;;10502630;28;20182;-68
2022/06/10 19:30:56;;;;;;;4.65;1.30;;;;;;;;;;10499857;28;20232;-69
2022/06/10 19:35:57;;;;;;;2.05;1.13;;;;;;;;;;10485809;28;20300;-67
2022/06/10 19:40:58;;;;;;;2.97;1.08;;;;;;;;;;10498284;28;20190;-67
2022/06/10 19:45:59;;;;;;;1.90;1.25;;;;;;;;;;10474883;28;20347;-67
2022/06/10 19:51:02;;;;;;;2.03;1.45;;;;;;;;;;10405673;28;20231;-67
2022/06/10 19:56:06;;;;;;;4.43;1.23;;;;;;;;;;10374132;28;20208;-67
2022/06/10 20:01:19;;;;;;;2.35;1.20;;;;;;;;;;10393662;28;20273;-67
2022/06/10 20:06:20;;;;;;;3.42;1.15;;;;;;;;;;10393982;28;20570;-67
2022/06/10 20:11:21;;;;;;;2.53;1.50;;;;;;;;;;10400489;28;20293;-67
2022/06/10 20:16:25;;;;;;;2.80;1.27;;;;;;;;;;10396724;28;20226;-67
2022/06/10 20:21:27;;;;;;;4.95;1.20;;;;;;;;;;10408037;28;21158;-67
2022/06/10 20:26:34;;;;;;;2.15;1.10;;;;;;;;;;10391526;28;20231;-67
2022/06/10 20:31:38;;;;;;;4.40;1.55;;;;;;;;;;10398076;28;20234;-67
2022/06/10 20:36:39;;;;;;;2.63;2.22;;;;;;;;;;10396842;28;20180;-67
2022/06/10 20:41:41;;;;;;;3.08;2.47;;;;;;;;;;10395921;28;20935;-67
2022/06/10 20:46:47;;;;;;;3.72;2.30;;;;;;;;;;10369078;28;20222;-66
2022/06/10 20:51:50;;;;;;;2.65;2.45;;;;;;;;;;10433188;28;20655;-68
2022/06/10 20:56:52;;;;;;;2.60;2.40;;;;;;;;;;10443301;28;20294;-67
2022/06/10 21:01:55;;;;;;;2.88;2.70;;;;;;;;;;10436229;28;20219;-68
2022/06/10 21:12:16;;;;;;;4.50;2.28;;;;;;;;;;10443320;28;20206;-67
2022/06/10 21:17:19;;;;;;;4.63;2.78;;;;;;;;;;10441928;28;20213;-68
2022/06/10 21:22:21;;;;;;;2.80;2.50;;;;;;;;;;10439290;28;20675;-67
2022/06/10 21:27:24;;;;;;;4.85;2.20;;;;;;;;;;10425035;28;20229;-67
2022/06/10 21:32:26;;;;;;;2.53;1.92;;;;;;;;;;10452875;28;20210;-68
2022/06/10 21:37:27;;;;;;;2.33;1.98;;;;;;;;;;10427512;28;20670;-68
2022/06/10 21:47:49;;;;;;;3.20;1.85;;;;;;;;;;10453684;28;20233;-67
2022/06/10 21:52:52;;;;;;;3.75;2.08;;;;;;;;;;10445083;28;20213;-67
2022/06/10 21:57:53;;;;;;;3.20;1.92;;;;;;;;;;10444109;28;20255;-67
2022/06/10 22:02:55;;;;;;;3.03;1.80;;;;;;;;;;10439730;28;20213;-68
2022/06/10 22:07:56;;;;;;;7.50;2.50;;;;;;;;;;10438746;28;20792;-67
2022/06/10 22:12:58;;;;;;;3.63;2.33;;;;;;;;;;10456290;28;20661;-67
2022/06/10 22:18:06;;;;;;;4.63;2.50;;;;;;;;;;10467327;28;20178;-67
2022/06/10 22:23:11;;;;;;;3.20;2.63;;;;;;;;;;10425223;28;20210;-66
2022/06/10 22:28:12;;;;;;;4.15;2.80;;;;;;;;;;10471444;28;20309;-67
2022/06/10 22:33:19;;;;;;;3.00;2.55;;;;;;;;;;10458944;28;20312;-67
2022/06/10 22:38:26;;;;;;;6.00;2.80;;;;;;;;;;10461803;28;20178;-68
2022/06/10 22:43:28;;;;;;;4.93;2.85;;;;;;;;;;10461819;28;20190;-67
2022/06/10 22:48:29;;;;;;;2.90;2.67;;;;;;;;;;10425814;28;20285;-67
2022/06/10 22:53:31;;;;;;;6.38;2.85;;;;;;;;;;10462750;28;20232;-67
2022/06/10 22:58:32;;;;;;;2.88;2.60;;;;;;;;;;10459783;28;20225;-67
2022/06/10 23:03:38;;;;;;;7.00;2.85;;;;;;;;;;10461735;28;20292;-67
2022/06/10 23:14:00;;;;;;;4.00;2.83;;;;;;;;;;10460542;28;20184;-68
2022/06/10 23:19:02;;;;;;;4.80;3.13;;;;;;;;;;10459134;28;20213;-67
2022/06/10 23:24:03;;;;;;;3.72;2.78;;;;;;;;;;10465121;28;20190;-67
2022/06/10 23:29:04;;;;;;;7.00;3.03;;;;;;;;;;10458673;28;20276;-68
2022/06/10 23:34:07;;;;;;;3.80;3.13;;;;;;;;;;10449045;28;20837;-68
2022/06/10 23:39:10;;;;;;;3.72;3.47;;;;;;;;;;10456033;28;20189;-68
2022/06/10 23:44:11;;;;;;;8.43;3.95;;;;;;;;;;10448689;28;20738;-68
2022/06/10 23:54:36;;;;;;;4.43;3.95;;;;;;;;;;10447420;28;20236;-68
2022/06/10 23:59:37;;;;;;;4.43;4.10;;;;;;;;;;10435242;28;20237;-67
